sensor_id;sensor_type;location;lat;lon;timestamp;temperature;humidity
20504;DHT22;10410;51.046;6.980;2022-10-31T00:00:20;13.00;99.90
20504;DHT22;10410;51.046;6.980;2022-10-31T00:07:20;13.00;99.90
20504;DHT22;10410;51.046;6.980;2022-10-31T00:14:21;13.00;99.90
20504;DHT22;10410;51.046;6.980;2022-10-31T00:21:22;12.90;99.90
20504;DHT22;10410;51.046;6.980;2022-10-31T00:28:22;12.80;99.90
20504;DHT22;10410;51.046;6.980;2022-10-31T00:35:23;12.80;99.90
20504;DHT22;10410;51.046;6.980;2022-10-31T00:42:23;12.80;99.90
20504;DHT22;10410;51.046;6.980;2022-10-31T00:49:23;12.70;99.90
20504;DHT22;10410;51.046;6.980;2022-10-31T00:56:24;12.70;99.90
20504;DHT22;10410;51.046;6.980;2022-10-31T01:03:31;12.60;99.90
20504;DHT22;10410;51.046;6.980;2022-10-31T01:10:31;12.60;99.90
20504;DHT22;10410;51.046;6.980;2022-10-31T01:17:31;12.60;99.90
20504;DHT22;10410;51.046;6.980;2022-10-31T01:24:32;12.50;99.90
20504;DHT22;10410;51.046;6.980;2022-10-31T01:31:37;12.50;99.90
20504;DHT22;10410;51.046;6.980;2022-10-31T01:38:38;12.50;99.90
20504;DHT22;10410;51.046;6.980;2022-10-31T01:45:38;12.50;99.90
20504;DHT22;10410;51.046;6.980;2022-10-31T01:52:44;12.40;99.90
20504;DHT22;10410;51.046;6.980;2022-10-31T01:59:49;12.40;99.90
20504;DHT22;10410;51.046;6.980;2022-10-31T02:06:58;12.40;99.90
20504;DHT22;10410;51.046;6.980;2022-10-31T02:14:02;12.40;99.90
20504;DHT22;10410;51.046;6.980;2022-10-31T02:21:27;12.30;99.90
20504;DHT22;10410;51.046;6.980;2022-10-31T02:43:09;11.90;99.90
20504;DHT22;10410;51.046;6.980;2022-10-31T02:50:26;11.90;99.90
20504;DHT22;10410;51.046;6.980;2022-10-31T02:57:32;11.80;99.90
20504;DHT22;10410;51.046;6.980;2022-10-31T03:04:40;11.80;99.90
20504;DHT22;10410;51.046;6.980;2022-10-31T03:19:00;11.90;99.90
20504;DHT22;10410;51.046;6.980;2022-10-31T03:26:04;11.80;99.90
20504;DHT22;10410;51.046;6.980;2022-10-31T03:33:08;11.80;99.90
20504;DHT22;10410;51.046;6.980;2022-10-31T03:40:12;11.70;99.90
20504;DHT22;10410;51.046;6.980;2022-10-31T03:47:15;11.70;99.90
20504;DHT22;10410;51.046;6.980;2022-10-31T04:01:43;11.60;99.90
20504;DHT22;10410;51.046;6.980;2022-10-31T04:08:52;11.60;99.90
20504;DHT22;10410;51.046;6.980;2022-10-31T04:15:55;11.60;99.90
20504;DHT22;10410;51.046;6.980;2022-10-31T04:22:55;11.50;99.90
20504;DHT22;10410;51.046;6.980;2022-10-31T04:29:56;11.50;99.90
20504;DHT22;10410;51.046;6.980;2022-10-31T04:36:57;11.40;99.90
20504;DHT22;10410;51.046;6.980;2022-10-31T04:43:57;11.40;99.90
20504;DHT22;10410;51.046;6.980;2022-10-31T04:51:00;11.40;99.90
20504;DHT22;10410;51.046;6.980;2022-10-31T04:58:02;11.40;99.90
20504;DHT22;10410;51.046;6.980;2022-10-31T05:05:03;11.40;99.90
20504;DHT22;10410;51.046;6.980;2022-10-31T05:12:07;11.50;99.90
20504;DHT22;10410;51.046;6.980;2022-10-31T05:19:27;11.60;99.90
20504;DHT22;10410;51.046;6.980;2022-10-31T05:26:46;11.50;99.90
20504;DHT22;10410;51.046;6.980;2022-10-31T05:33:47;11.50;99.90
20504;DHT22;10410;51.046;6.980;2022-10-31T05:40:57;11.40;99.90
20504;DHT22;10410;51.046;6.980;2022-10-31T05:48:04;11.40;99.90
20504;DHT22;10410;51.046;6.980;2022-10-31T05:55:28;11.30;99.90
20504;DHT22;10410;51.046;6.980;2022-10-31T06:02:40;11.30;99.90
20504;DHT22;10410;51.046;6.980;2022-10-31T06:10:06;11.20;99.90
20504;DHT22;10410;51.046;6.980;2022-10-31T06:17:07;11.10;99.90
20504;DHT22;10410;51.046;6.980;2022-10-31T06:24:34;11.10;99.90
20504;DHT22;10410;51.046;6.980;2022-10-31T06:32:01;11.10;99.90
20504;DHT22;10410;51.046;6.980;2022-10-31T06:39:03;11.20;99.90
20504;DHT22;10410;51.046;6.980;2022-10-31T06:46:04;11.10;99.90
20504;DHT22;10410;51.046;6.980;2022-10-31T06:53:11;11.10;99.90
20504;DHT22;10410;51.046;6.980;2022-10-31T07:00:13;11.10;99.90
20504;DHT22;10410;51.046;6.980;2022-10-31T07:07:20;11.20;99.90
20504;DHT22;10410;51.046;6.980;2022-10-31T07:14:23;11.20;99.90
20504;DHT22;10410;51.046;6.980;2022-10-31T07:21:25;11.30;99.90
20504;DHT22;10410;51.046;6.980;2022-10-31T07:28:26;11.50;99.90
20504;DHT22;10410;51.046;6.980;2022-10-31T07:35:28;11.60;99.90
20504;DHT22;10410;51.046;6.980;2022-10-31T07:42:38;11.80;99.90
20504;DHT22;10410;51.046;6.980;2022-10-31T07:49:42;11.90;99.90
20504;DHT22;10410;51.046;6.980;2022-10-31T07:57:01;12.00;99.90
20504;DHT22;10410;51.046;6.980;2022-10-31T08:04:01;12.10;99.90
20504;DHT22;10410;51.046;6.980;2022-10-31T08:11:21;12.20;99.90
20504;DHT22;10410;51.046;6.980;2022-10-31T08:18:21;12.40;99.90
20504;DHT22;10410;51.046;6.980;2022-10-31T08:25:24;12.50;99.90
20504;DHT22;10410;51.046;6.980;2022-10-31T08:32:25;12.70;99.90
20504;DHT22;10410;51.046;6.980;2022-10-31T08:39:48;12.70;99.90
20504;DHT22;10410;51.046;6.980;2022-10-31T08:46:48;12.80;99.90
20504;DHT22;10410;51.046;6.980;2022-10-31T08:53:49;13.00;99.90
20504;DHT22;10410;51.046;6.980;2022-10-31T09:01:08;13.10;99.90
20504;DHT22;10410;51.046;6.980;2022-10-31T09:08:09;13.30;99.90
20504;DHT22;10410;51.046;6.980;2022-10-31T09:15:17;13.40;99.90
20504;DHT22;10410;51.046;6.980;2022-10-31T09:22:26;13.60;99.90
20504;DHT22;10410;51.046;6.980;2022-10-31T09:29:26;13.70;99.90
20504;DHT22;10410;51.046;6.980;2022-10-31T09:36:31;13.90;99.90
20504;DHT22;10410;51.046;6.980;2022-10-31T09:43:44;14.00;99.90
20504;DHT22;10410;51.046;6.980;2022-10-31T09:50:53;14.30;99.90
20504;DHT22;10410;51.046;6.980;2022-10-31T09:58:04;14.40;99.90
20504;DHT22;10410;51.046;6.980;2022-10-31T10:05:37;14.60;99.90
20504;DHT22;10410;51.046;6.980;2022-10-31T10:34:31;15.80;99.90
20504;DHT22;10410;51.046;6.980;2022-10-31T10:41:33;16.30;99.90
20504;DHT22;10410;51.046;6.980;2022-10-31T10:48:43;16.80;99.90
20504;DHT22;10410;51.046;6.980;2022-10-31T10:55:47;17.20;99.90
20504;DHT22;10410;51.046;6.980;2022-10-31T11:02:51;17.50;99.90
20504;DHT22;10410;51.046;6.980;2022-10-31T11:10:03;17.90;99.90
20504;DHT22;10410;51.046;6.980;2022-10-31T11:17:10;18.20;99.90
20504;DHT22;10410;51.046;6.980;2022-10-31T11:24:16;18.40;99.90
20504;DHT22;10410;51.046;6.980;2022-10-31T11:31:17;18.50;99.90
20504;DHT22;10410;51.046;6.980;2022-10-31T11:38:19;18.70;99.90
20504;DHT22;10410;51.046;6.980;2022-10-31T11:52:25;19.10;99.90
20504;DHT22;10410;51.046;6.980;2022-10-31T11:59:30;19.10;99.90
20504;DHT22;10410;51.046;6.980;2022-10-31T12:06:34;19.20;99.90
20504;DHT22;10410;51.046;6.980;2022-10-31T12:13:38;19.30;99.90
20504;DHT22;10410;51.046;6.980;2022-10-31T13:04:54;20.00;99.90
20504;DHT22;10410;51.046;6.980;2022-10-31T13:12:00;19.90;99.90
20504;DHT22;10410;51.046;6.980;2022-10-31T13:19:12;19.90;99.90
20504;DHT22;10410;51.046;6.980;2022-10-31T13:26:40;19.80;99.90
20504;DHT22;10410;51.046;6.980;2022-10-31T13:33:46;19.90;99.90
20504;DHT22;10410;51.046;6.980;2022-10-31T13:40:52;19.90;99.90
20504;DHT22;10410;51.046;6.980;2022-10-31T13:55:35;20.10;99.90
20504;DHT22;10410;51.046;6.980;2022-10-31T14:02:36;20.10;99.90
20504;DHT22;10410;51.046;6.980;2022-10-31T14:09:39;19.90;99.90
20504;DHT22;10410;51.046;6.980;2022-10-31T14:16:43;19.90;99.90
20504;DHT22;10410;51.046;6.980;2022-10-31T14:23:45;19.80;99.90
20504;DHT22;10410;51.046;6.980;2022-10-31T14:30:54;19.80;99.90
20504;DHT22;10410;51.046;6.980;2022-10-31T14:38:13;19.70;99.90
20504;DHT22;10410;51.046;6.980;2022-10-31T14:53:01;19.60;99.90
20504;DHT22;10410;51.046;6.980;2022-10-31T15:00:07;19.50;99.90
20504;DHT22;10410;51.046;6.980;2022-10-31T15:14:29;19.50;99.90
20504;DHT22;10410;51.046;6.980;2022-10-31T15:21:30;19.40;99.90
20504;DHT22;10410;51.046;6.980;2022-10-31T15:28:31;19.40;99.90
20504;DHT22;10410;51.046;6.980;2022-10-31T15:35:31;19.30;99.90
20504;DHT22;10410;51.046;6.980;2022-10-31T15:42:39;19.20;99.90
20504;DHT22;10410;51.046;6.980;2022-10-31T15:49:46;19.10;99.90
20504;DHT22;10410;51.046;6.980;2022-10-31T15:56:47;19.10;99.90
20504;DHT22;10410;51.046;6.980;2022-10-31T16:04:14;18.90;99.90
20504;DHT22;10410;51.046;6.980;2022-10-31T16:11:33;18.80;99.90
20504;DHT22;10410;51.046;6.980;2022-10-31T16:18:36;18.70;99.90
20504;DHT22;10410;51.046;6.980;2022-10-31T16:25:38;18.60;99.90
20504;DHT22;10410;51.046;6.980;2022-10-31T16:32:57;18.40;99.90
20504;DHT22;10410;51.046;6.980;2022-10-31T16:39:59;18.20;99.90
20504;DHT22;10410;51.046;6.980;2022-10-31T16:54:06;18.00;99.90
20504;DHT22;10410;51.046;6.980;2022-10-31T17:01:08;17.80;99.90
20504;DHT22;10410;51.046;6.980;2022-10-31T17:08:08;17.70;99.90
20504;DHT22;10410;51.046;6.980;2022-10-31T17:15:19;17.60;99.90
20504;DHT22;10410;51.046;6.980;2022-10-31T17:22:20;17.50;99.90
20504;DHT22;10410;51.046;6.980;2022-10-31T17:29:20;17.50;99.90
20504;DHT22;10410;51.046;6.980;2022-10-31T17:36:21;17.40;99.90
20504;DHT22;10410;51.046;6.980;2022-10-31T17:43:22;17.30;99.90
20504;DHT22;10410;51.046;6.980;2022-10-31T17:50:26;17.20;99.90
20504;DHT22;10410;51.046;6.980;2022-10-31T17:57:26;17.10;99.90
20504;DHT22;10410;51.046;6.980;2022-10-31T18:04:31;17.10;99.90
20504;DHT22;10410;51.046;6.980;2022-10-31T18:11:31;17.10;99.90
20504;DHT22;10410;51.046;6.980;2022-10-31T18:18:32;17.10;99.90
20504;DHT22;10410;51.046;6.980;2022-10-31T18:25:32;17.10;99.90
20504;DHT22;10410;51.046;6.980;2022-10-31T18:32:33;17.00;99.90
20504;DHT22;10410;51.046;6.980;2022-10-31T18:39:35;17.00;99.90
20504;DHT22;10410;51.046;6.980;2022-10-31T18:46:36;17.00;99.90
20504;DHT22;10410;51.046;6.980;2022-10-31T18:53:37;17.00;99.90
20504;DHT22;10410;51.046;6.980;2022-10-31T19:00:37;17.00;99.90
20504;DHT22;10410;51.046;6.980;2022-10-31T19:07:37;17.00;99.90
20504;DHT22;10410;51.046;6.980;2022-10-31T19:14:38;17.00;99.90
20504;DHT22;10410;51.046;6.980;2022-10-31T19:21:38;16.90;99.90
20504;DHT22;10410;51.046;6.980;2022-10-31T19:28:39;16.80;99.90
20504;DHT22;10410;51.046;6.980;2022-10-31T19:35:40;16.80;99.90
20504;DHT22;10410;51.046;6.980;2022-10-31T19:42:40;16.70;99.90
20504;DHT22;10410;51.046;6.980;2022-10-31T19:49:41;16.60;99.90
20504;DHT22;10410;51.046;6.980;2022-10-31T19:56:42;16.50;99.90
20504;DHT22;10410;51.046;6.980;2022-10-31T20:03:44;16.40;99.90
20504;DHT22;10410;51.046;6.980;2022-10-31T20:11:03;16.30;99.90
20504;DHT22;10410;51.046;6.980;2022-10-31T20:18:03;16.30;99.90
20504;DHT22;10410;51.046;6.980;2022-10-31T20:25:04;16.20;99.90
20504;DHT22;10410;51.046;6.980;2022-10-31T20:32:04;16.20;99.90
20504;DHT22;10410;51.046;6.980;2022-10-31T20:39:05;16.20;99.90
20504;DHT22;10410;51.046;6.980;2022-10-31T20:46:14;16.20;99.90
20504;DHT22;10410;51.046;6.980;2022-10-31T20:53:15;16.20;99.90
20504;DHT22;10410;51.046;6.980;2022-10-31T21:00:16;16.20;99.90
20504;DHT22;10410;51.046;6.980;2022-10-31T21:07:16;16.20;99.90
20504;DHT22;10410;51.046;6.980;2022-10-31T21:14:17;16.20;99.90
20504;DHT22;10410;51.046;6.980;2022-10-31T21:21:23;16.10;99.90
20504;DHT22;10410;51.046;6.980;2022-10-31T21:28:31;16.10;99.90
20504;DHT22;10410;51.046;6.980;2022-10-31T21:35:31;16.10;99.90
20504;DHT22;10410;51.046;6.980;2022-10-31T21:42:32;16.10;99.90
20504;DHT22;10410;51.046;6.980;2022-10-31T21:49:32;16.00;99.90
20504;DHT22;10410;51.046;6.980;2022-10-31T21:56:33;16.00;99.90
20504;DHT22;10410;51.046;6.980;2022-10-31T22:03:35;16.00;99.90
20504;DHT22;10410;51.046;6.980;2022-10-31T22:10:35;16.00;99.90
20504;DHT22;10410;51.046;6.980;2022-10-31T22:17:36;15.90;99.90
20504;DHT22;10410;51.046;6.980;2022-10-31T22:24:36;15.90;99.90
20504;DHT22;10410;51.046;6.980;2022-10-31T22:31:38;15.90;99.90
20504;DHT22;10410;51.046;6.980;2022-10-31T22:38:40;15.90;99.90
20504;DHT22;10410;51.046;6.980;2022-10-31T22:45:40;15.90;99.90
20504;DHT22;10410;51.046;6.980;2022-10-31T22:52:41;15.90;99.90
20504;DHT22;10410;51.046;6.980;2022-10-31T22:59:42;16.00;99.90
20504;DHT22;10410;51.046;6.980;2022-10-31T23:06:45;16.00;99.90
20504;DHT22;10410;51.046;6.980;2022-10-31T23:13:47;16.00;99.90
20504;DHT22;10410;51.046;6.980;2022-10-31T23:21:07;16.00;99.90
20504;DHT22;10410;51.046;6.980;2022-10-31T23:28:08;16.00;99.90
20504;DHT22;10410;51.046;6.980;2022-10-31T23:35:09;16.00;99.90
20504;DHT22;10410;51.046;6.980;2022-10-31T23:42:10;16.00;99.90
20504;DHT22;10410;51.046;6.980;2022-10-31T23:49:11;15.90;99.90
20504;DHT22;10410;51.046;6.980;2022-10-31T23:56:12;15.90;99.90
